createdAt,value
2022-10-05T00:07:20.645Z,10
2022-10-05T00:17:20.909Z,10
2022-10-05T00:37:21.557Z,10.1
2022-10-05T01:07:23.818Z,10.4
2022-10-05T01:17:24.015Z,10.5
2022-10-05T01:57:26.200Z,11.9
2022-10-05T02:07:27.061Z,12.1
2022-10-05T02:17:28.010Z,12.2
2022-10-05T02:37:30.129Z,12.5
2022-10-05T02:57:30.962Z,12.6
2022-10-05T03:37:33.673Z,12.9
2022-10-05T03:47:34.398Z,13
2022-10-05T04:17:36.190Z,13
2022-10-05T04:37:38.100Z,13.1
2022-10-05T04:57:39.811Z,13.4
2022-10-05T05:07:40.644Z,13.5
2022-10-05T05:17:41.370Z,13.5
2022-10-05T05:37:42.171Z,13.5
2022-10-05T05:47:42.599Z,13.6
2022-10-05T05:57:43.594Z,13.7
2022-10-05T06:07:44.476Z,13.9
2022-10-05T06:17:45.508Z,14.1
2022-10-05T06:27:46.577Z,14.2
2022-10-05T06:37:47.380Z,14.3
2022-10-05T06:38:09.259Z,14.3
2022-10-05T06:47:53.669Z,14.5
2022-10-05T06:57:54.591Z,14.7
2022-10-05T07:17:55.787Z,15
2022-10-05T07:27:56.561Z,15
2022-10-05T07:37:56.884Z,15
2022-10-05T07:47:57.202Z,15
2022-10-05T07:57:57.859Z,15.1
2022-10-05T08:17:59.044Z,15.3
2022-10-05T08:27:59.577Z,15.5
2022-10-05T08:38:00.457Z,15.6
2022-10-05T09:08:02.126Z,15.9
2022-10-05T09:18:02.324Z,16
2022-10-05T09:28:02.891Z,16.1
2022-10-05T09:38:03.931Z,16.2
2022-10-05T09:48:04.066Z,16.3
2022-10-05T09:58:05.153Z,16.5
2022-10-05T10:08:06.186Z,16.7
2022-10-05T10:18:06.688Z,17
2022-10-05T10:28:07.674Z,17.2
2022-10-05T10:38:08.540Z,17.3
2022-10-05T10:48:09.104Z,17.3
2022-10-05T10:58:13.696Z,17.6
2022-10-05T11:08:10.553Z,17.5
2022-10-05T11:28:11.798Z,17.9
2022-10-05T11:38:12.531Z,18.2
2022-10-05T11:48:12.989Z,19
2022-10-05T11:58:13.142Z,18.8
2022-10-05T12:08:14.203Z,19.1
2022-10-05T12:18:14.932Z,19.7
2022-10-05T12:38:15.651Z,20
2022-10-05T12:48:16.090Z,20.2
2022-10-05T12:58:16.835Z,20.2
2022-10-05T13:08:17.385Z,20.2
2022-10-05T13:18:18.313Z,20.6
2022-10-05T13:28:19.162Z,20.4
2022-10-05T13:48:20.178Z,20.6
2022-10-05T13:58:20.489Z,20.6
2022-10-05T14:08:21.565Z,20.9
2022-10-05T14:48:23.713Z,21.4
2022-10-05T14:58:24.041Z,21.6
2022-10-05T15:08:24.283Z,21.6
2022-10-05T15:18:28.353Z,21.5
2022-10-05T15:28:25.170Z,21
2022-10-05T15:38:26.236Z,20.8
2022-10-05T15:48:26.487Z,20.5
2022-10-05T15:58:27.200Z,20.3
2022-10-05T16:08:27.738Z,20.3
2022-10-05T16:18:28.131Z,20.5
2022-10-05T16:28:28.656Z,20.4
2022-10-05T16:58:29.847Z,19.8
2022-10-05T17:48:32.962Z,18.1
2022-10-05T18:28:36.136Z,18.1
2022-10-05T18:48:37.132Z,18.2
2022-10-05T19:18:39.045Z,18.3
2022-10-05T19:28:39.279Z,18.3
2022-10-05T19:38:39.783Z,18.3
2022-10-05T19:48:40.608Z,18.4
2022-10-05T19:58:41.344Z,18.5
2022-10-05T20:08:42.011Z,18.4
2022-10-05T20:18:43.021Z,18.5
2022-10-05T20:28:44.053Z,18.5
2022-10-05T20:38:44.598Z,18.6
2022-10-05T20:48:44.855Z,18.6
2022-10-05T20:58:45.275Z,18.5
2022-10-05T21:08:45.633Z,18.6
2022-10-05T21:18:45.788Z,18.6
2022-10-05T21:28:46.217Z,18.6
2022-10-05T21:38:46.624Z,18.5
2022-10-05T21:48:47.091Z,18.4
2022-10-05T21:58:48.168Z,18.3
2022-10-05T22:08:48.621Z,18.2
2022-10-05T22:18:49.322Z,18.1
2022-10-05T22:28:49.499Z,17.9
2022-10-05T22:38:50.362Z,17.8
2022-10-05T22:48:50.736Z,17.6
2022-10-05T22:58:50.852Z,15.8
2022-10-05T23:08:51.602Z,14.8
2022-10-05T23:18:52.249Z,14.1
2022-10-05T23:28:52.392Z,13.7
2022-10-05T23:38:53.252Z,13.5
2022-10-05T23:58:54.359Z,13.5
